Terminal Aerodrome Forecast
Issued by NWS Jackson, MS

Home | Current Version | Previous Version | Text Only | Print | Product List | Glossary On
Versions: 1 2 3 4 5 6 7 8 9 10 11 12 13 14 15
000
FTUS44 KJAN 191700
TAFMEI
TAF
KMEI 191720Z 1918/2018 36009KT P6SM SKC
     FM200100 36003KT P6SM SKC
     FM200900 00000KT 4SM BR SKC
     FM201400 09005KT P6SM SKC=

USA.gov is the U.S. government's official web portal to all federal, state and local government web resources and services.